Time;durP1;ratioP1;P1;durP2;ratioP2;P2;SDS_P1;SDS_P2;PMS_P1;PMS_P2;Temp;Humidity;BMP_temperature;BMP_pressure;BME280_temperature;BME280_humidity;BME280_pressure;Samples;Min_cycle;Max_cycle;Signal;HPM_P1;HPM_P2
2020/12/07 00:00:39;;;;;;;67.43;35.80;;;3.90;95.20;;;;;;5034039;28;20028;-90
2020/12/07 00:03:04;;;;;;;71.90;35.65;;;3.90;95.20;;;;;;5031444;28;20064;-89
2020/12/07 00:05:31;;;;;;;67.93;33.08;;;3.90;95.20;;;;;;5027730;28;20050;-90
2020/12/07 00:07:57;;;;;;;69.70;35.75;;;3.90;95.20;;;;;;5031676;28;20030;-90
2020/12/07 00:10:23;;;;;;;77.10;38.28;;;3.90;95.20;;;;;;5034040;28;20022;-89
2020/12/07 00:12:48;;;;;;;68.93;34.40;;;3.90;95.30;;;;;;5032721;28;20028;-89
2020/12/07 00:15:14;;;;;;;59.92;31.27;;;3.90;95.30;;;;;;5013948;28;20037;-88
2020/12/07 00:17:39;;;;;;;68.78;34.97;;;3.90;95.30;;;;;;5031501;28;20540;-88
2020/12/07 00:20:07;;;;;;;69.00;34.95;;;3.90;95.30;;;;;;5034573;28;20390;-88
2020/12/07 00:22:32;;;;;;;65.35;32.17;;;3.90;95.30;;;;;;5034439;28;20120;-88
2020/12/07 00:25:00;;;;;;;69.68;33.50;;;3.90;95.30;;;;;;5030450;28;20060;-89
2020/12/07 00:27:27;;;;;;;70.95;33.88;;;3.90;95.30;;;;;;5020192;28;20026;-89
2020/12/07 00:29:54;;;;;;;73.70;35.88;;;3.90;95.30;;;;;;5022716;28;20113;-88
2020/12/07 00:32:21;;;;;;;63.63;32.90;;;3.90;95.30;;;;;;5031606;28;20039;-87
2020/12/07 00:34:47;;;;;;;72.25;34.60;;;3.90;95.30;;;;;;5034416;28;20017;-89
2020/12/07 00:37:13;;;;;;;77.38;36.38;;;3.90;95.30;;;;;;5029236;28;20545;-89
2020/12/07 00:39:39;;;;;;;67.82;33.92;;;4.00;95.40;;;;;;5022169;28;20061;-90
2020/12/07 00:42:04;;;;;;;74.25;35.33;;;4.00;95.40;;;;;;5033634;28;20053;-89
2020/12/07 00:44:30;;;;;;;67.03;33.65;;;4.00;95.30;;;;;;5033129;28;20056;-89
2020/12/07 00:46:56;;;;;;;74.70;35.78;;;4.00;95.30;;;;;;5027115;28;20028;-89
2020/12/07 00:49:22;;;;;;;67.05;33.75;;;4.10;95.40;;;;;;5031626;28;20402;-89
2020/12/07 00:51:48;;;;;;;77.65;36.15;;;4.10;95.40;;;;;;5049926;28;20024;-89
2020/12/07 00:54:14;;;;;;;68.93;34.58;;;4.10;95.40;;;;;;5034218;28;20616;-89
2020/12/07 00:56:40;;;;;;;76.60;36.38;;;4.10;95.40;;;;;;5039311;28;20017;-89
2020/12/07 00:59:05;;;;;;;74.13;37.42;;;4.10;95.40;;;;;;5030575;28;20398;-89
2020/12/07 01:01:31;;;;;;;73.40;35.35;;;4.10;95.40;;;;;;5030903;28;20022;-89
2020/12/07 01:03:56;;;;;;;79.90;36.35;;;4.10;95.40;;;;;;5020615;28;20040;-89
2020/12/07 01:06:28;;;;;;;77.45;36.80;;;4.20;95.40;;;;;;5023361;28;20025;-88
2020/12/07 01:08:53;;;;;;;72.63;36.67;;;4.20;95.40;;;;;;5020433;28;20589;-88
2020/12/07 01:11:19;;;;;;;70.80;32.95;;;4.20;95.40;;;;;;5014484;28;20022;-88
2020/12/07 01:13:44;;;;;;;73.13;34.40;;;4.30;95.40;;;;;;5028203;28;20037;-88
2020/12/07 01:16:10;;;;;;;78.38;36.17;;;4.30;95.40;;;;;;5031847;28;20037;-90
2020/12/07 01:18:35;;;;;;;75.97;35.80;;;4.30;95.40;;;;;;5029118;28;20037;-89
2020/12/07 01:21:01;;;;;;;78.00;35.17;;;4.30;95.70;;;;;;5029601;28;20021;-88
2020/12/07 01:23:26;;;;;;;72.68;34.25;;;4.40;95.40;;;;;;5013429;28;20505;-88
2020/12/07 01:25:52;;;;;;;75.40;35.45;;;4.40;95.40;;;;;;5031065;28;20034;-88
2020/12/07 01:28:17;;;;;;;77.00;34.63;;;4.40;95.50;;;;;;5020461;28;20033;-88
2020/12/07 01:30:44;;;;;;;87.00;38.80;;;4.50;95.50;;;;;;5032978;28;20025;-88
2020/12/07 01:33:10;;;;;;;80.95;37.22;;;4.50;95.40;;;;;;5032710;28;20034;-87
2020/12/07 01:35:35;;;;;;;71.53;32.15;;;4.50;95.40;;;;;;5028969;28;20021;-87
2020/12/07 01:38:01;;;;;;;75.55;34.88;;;4.50;95.60;;;;;;5030147;28;20124;-87
2020/12/07 01:40:26;;;;;;;86.40;37.63;;;4.50;95.40;;;;;;5031597;28;20079;-87
2020/12/07 01:42:52;;;;;;;84.70;40.45;;;4.40;95.30;;;;;;5028202;28;20038;-87
2020/12/07 01:45:17;;;;;;;80.50;36.60;;;4.40;95.30;;;;;;5022421;28;20034;-87
2020/12/07 01:47:43;;;;;;;84.25;36.72;;;4.40;95.30;;;;;;5030092;28;20480;-87
2020/12/07 01:50:09;;;;;;;79.75;36.53;;;4.40;95.30;;;;;;5030173;28;20387;-87
2020/12/07 01:52:35;;;;;;;90.22;38.65;;;4.40;95.40;;;;;;5030767;28;20041;-88
2020/12/07 01:55:02;;;;;;;79.70;34.10;;;4.40;95.40;;;;;;5020166;28;20106;-87
2020/12/07 01:57:27;;;;;;;72.72;33.80;;;4.40;95.40;;;;;;5018800;28;20027;-88
2020/12/07 01:59:53;;;;;;;80.50;36.70;;;4.40;95.40;;;;;;5025800;28;20071;-87
2020/12/07 02:02:18;;;;;;;81.95;36.50;;;4.40;95.40;;;;;;5031919;28;20044;-88
2020/12/07 02:04:44;;;;;;;75.45;32.25;;;4.40;95.40;;;;;;5033161;28;20025;-88
2020/12/07 02:07:19;;;;;;;92.35;38.40;;;4.40;95.40;;;;;;5022878;28;20026;-88
2020/12/07 02:09:45;;;;;;;77.30;34.97;;;4.40;95.40;;;;;;5012742;28;20030;-87
2020/12/07 02:12:11;;;;;;;71.72;34.20;;;4.40;95.40;;;;;;5031109;28;20026;-86
2020/12/07 02:14:36;;;;;;;64.22;30.08;;;4.50;95.50;;;;;;5037639;28;20041;-87
2020/12/07 02:17:02;;;;;;;80.20;35.60;;;4.50;95.40;;;;;;5032080;28;20069;-87
2020/12/07 02:19:27;;;;;;;69.40;33.15;;;4.50;95.40;;;;;;5028084;28;20030;-87
2020/12/07 02:21:53;;;;;;;80.82;36.50;;;4.50;95.40;;;;;;5032336;28;20048;-87
2020/12/07 02:24:18;;;;;;;80.82;37.25;;;4.50;95.50;;;;;;5016927;28;20022;-87
2020/12/07 02:26:44;;;;;;;70.72;32.60;;;4.50;95.50;;;;;;5027987;28;20026;-86
2020/12/07 02:29:09;;;;;;;75.50;36.00;;;4.50;95.50;;;;;;5029053;28;20064;-86
2020/12/07 02:31:37;;;;;;;79.13;38.85;;;4.50;95.50;;;;;;5025275;28;20067;-86
2020/12/07 02:34:03;;;;;;;75.45;35.60;;;4.50;95.50;;;;;;5023250;28;20040;-85
2020/12/07 02:36:28;;;;;;;69.60;34.20;;;4.50;95.50;;;;;;5030469;28;20021;-85
2020/12/07 02:38:54;;;;;;;72.78;33.80;;;4.50;95.50;;;;;;5020869;28;20060;-86
2020/12/07 02:41:19;;;;;;;62.88;31.08;;;4.50;95.50;;;;;;5015449;28;20056;-86
2020/12/07 02:43:45;;;;;;;66.65;33.13;;;4.50;95.50;;;;;;5020594;28;20052;-86
2020/12/07 02:46:10;;;;;;;74.97;34.20;;;4.40;95.50;;;;;;5024995;28;20030;-86
2020/12/07 02:48:36;;;;;;;63.05;30.50;;;4.50;95.50;;;;;;5017177;28;20030;-86
2020/12/07 02:51:01;;;;;;;61.00;30.23;;;4.50;95.50;;;;;;5026713;28;20113;-86
2020/12/07 02:53:27;;;;;;;62.35;30.67;;;4.50;95.50;;;;;;5028145;28;20038;-86
2020/12/07 02:55:52;;;;;;;61.92;31.00;;;4.50;95.50;;;;;;5021713;28;20030;-86
2020/12/07 02:58:18;;;;;;;60.17;30.33;;;4.50;95.50;;;;;;5024527;28;20083;-86
2020/12/07 03:00:43;;;;;;;54.58;28.30;;;4.50;95.50;;;;;;5030642;28;20029;-86
2020/12/07 03:03:09;;;;;;;52.25;25.45;;;4.50;95.50;;;;;;5014116;28;20034;-87
2020/12/07 03:05:34;;;;;;;53.65;25.95;;;4.50;95.50;;;;;;5030162;28;20026;-87
2020/12/07 03:08:00;;;;;;;44.10;23.02;;;4.50;95.50;;;;;;5015720;28;20029;-87
2020/12/07 03:10:25;;;;;;;55.47;25.98;;;4.50;95.50;;;;;;5016707;28;20068;-87
2020/12/07 03:12:51;;;;;;;43.30;23.52;;;4.50;95.50;;;;;;5017099;28;20030;-87
2020/12/07 03:15:16;;;;;;;48.83;25.20;;;4.50;95.50;;;;;;5030668;28;20394;-87
2020/12/07 03:17:42;;;;;;;56.33;26.52;;;4.50;95.50;;;;;;5030208;28;20468;-87
2020/12/07 03:20:07;;;;;;;46.55;25.38;;;4.50;95.50;;;;;;5033834;28;20034;-87
2020/12/07 03:22:33;;;;;;;57.55;27.42;;;4.50;95.60;;;;;;5033801;28;20030;-87
2020/12/07 03:25:00;;;;;;;52.70;25.95;;;4.50;95.60;;;;;;5028286;28;20363;-88
2020/12/07 03:27:25;;;;;;;50.03;24.63;;;4.60;95.60;;;;;;5035093;28;20490;-87
2020/12/07 03:29:51;;;;;;;49.75;24.02;;;4.50;95.60;;;;;;5034646;28;20029;-87
2020/12/07 03:32:16;;;;;;;54.05;27.02;;;4.50;95.60;;;;;;5034045;28;20033;-88
2020/12/07 03:34:42;;;;;;;50.15;25.75;;;4.60;95.60;;;;;;5035927;28;20481;-88
2020/12/07 03:37:07;;;;;;;43.67;24.08;;;4.50;95.60;;;;;;5027212;28;20029;-87
2020/12/07 03:39:33;;;;;;;50.78;25.13;;;4.60;95.60;;;;;;5031244;28;20042;-87
2020/12/07 03:41:58;;;;;;;46.25;24.70;;;4.60;95.60;;;;;;5024387;28;20077;-89
2020/12/07 03:44:24;;;;;;;48.85;24.50;;;4.50;95.60;;;;;;5015934;28;20056;-87
2020/12/07 03:46:49;;;;;;;48.08;25.05;;;4.60;95.60;;;;;;5027437;28;20505;-88
2020/12/07 03:49:15;;;;;;;52.25;27.55;;;4.60;95.70;;;;;;5026107;28;20026;-88
2020/12/07 03:51:40;;;;;;;54.72;26.88;;;4.60;95.70;;;;;;5032954;28;20088;-87
2020/12/07 03:54:06;;;;;;;47.85;24.58;;;4.60;95.70;;;;;;5034168;28;20056;-87
2020/12/07 03:56:31;;;;;;;49.60;26.30;;;4.60;95.70;;;;;;5029398;28;20018;-88
2020/12/07 03:58:57;;;;;;;54.30;27.55;;;4.60;95.70;;;;;;5033425;28;20116;-87
2020/12/07 04:01:22;;;;;;;51.80;27.10;;;4.60;95.70;;;;;;5033196;28;20025;-88
2020/12/07 04:03:51;;;;;;;56.30;28.92;;;4.50;95.70;;;;;;5022136;28;20542;-87
2020/12/07 04:06:41;;;;;;;52.92;26.30;;;4.60;96.00;;;;;;5022611;28;20069;-88
2020/12/07 04:09:03;;;;;;;55.03;28.25;;;4.60;95.80;;;;;;5032289;28;20057;-88
2020/12/07 04:11:28;;;;;;;60.05;28.80;;;4.60;95.80;;;;;;5026676;28;20025;-88
2020/12/07 04:13:54;;;;;;;53.20;28.08;;;4.60;95.80;;;;;;5029095;28;20065;-88
2020/12/07 04:16:19;;;;;;;55.15;29.10;;;4.60;95.80;;;;;;5031832;28;20064;-88
2020/12/07 04:18:45;;;;;;;53.15;27.88;;;4.60;95.80;;;;;;5030491;28;20025;-88
2020/12/07 04:21:10;;;;;;;53.67;27.38;;;4.60;95.80;;;;;;5049921;28;20502;-87
2020/12/07 04:23:36;;;;;;;48.75;26.20;;;4.60;95.80;;;;;;5030372;28;20030;-88
2020/12/07 04:26:01;;;;;;;50.75;27.13;;;4.50;95.80;;;;;;5019757;28;20029;-88
2020/12/07 04:28:27;;;;;;;55.97;28.30;;;4.60;95.80;;;;;;5024090;28;20124;-87
2020/12/07 04:30:53;;;;;;;53.53;28.60;;;4.50;95.80;;;;;;5013878;28;20057;-88
2020/12/07 04:33:19;;;;;;;58.05;28.58;;;4.50;95.80;;;;;;5026807;28;20099;-87
2020/12/07 04:35:45;;;;;;;61.45;30.23;;;4.50;95.80;;;;;;5032567;28;20029;-88
2020/12/07 04:38:11;;;;;;;56.97;29.02;;;4.50;95.80;;;;;;5017853;28;20478;-87
2020/12/07 04:40:37;;;;;;;53.78;28.58;;;4.50;95.80;;;;;;5030006;28;20018;-88
2020/12/07 04:43:03;;;;;;;52.92;28.80;;;4.60;95.80;;;;;;5031212;28;20052;-87
2020/12/07 04:45:30;;;;;;;53.92;29.08;;;4.50;95.80;;;;;;5031635;28;20022;-87
2020/12/07 04:47:59;;;;;;;53.55;29.38;;;4.60;95.90;;;;;;5027830;28;20029;-88
2020/12/07 04:50:29;;;;;;;58.58;31.38;;;4.60;95.90;;;;;;5022223;28;20034;-88
2020/12/07 04:52:55;;;;;;;53.53;28.85;;;4.60;95.80;;;;;;5023969;28;20394;-88
2020/12/07 04:55:21;;;;;;;65.57;35.63;;;4.60;95.90;;;;;;5022193;28;20474;-87
2020/12/07 04:57:47;;;;;;;62.58;34.20;;;4.60;95.90;;;;;;5015746;28;20038;-87
2020/12/07 05:00:13;;;;;;;66.72;35.20;;;4.60;95.80;;;;;;5014580;28;20022;-87
2020/12/07 05:02:39;;;;;;;66.80;34.42;;;4.60;95.90;;;;;;5016243;28;20072;-88
2020/12/07 05:05:08;;;;;;;69.90;35.15;;;4.60;95.90;;;;;;5013664;28;20064;-87
2020/12/07 05:07:34;;;;;;;61.95;32.60;;;4.60;95.90;;;;;;5031617;28;20063;-88
2020/12/07 05:10:10;;;;;;;59.33;31.38;;;4.60;95.90;;;;;;5031447;28;20030;-88
2020/12/07 05:12:40;;;;;;;69.40;35.88;;;4.60;95.80;;;;;;5013598;28;20033;-87
2020/12/07 05:15:10;;;;;;;66.03;34.38;;;4.50;95.80;;;;;;5039713;28;20041;-87
2020/12/07 05:17:37;;;;;;;61.40;33.58;;;4.60;95.90;;;;;;5019483;28;20037;-88
2020/12/07 05:20:07;;;;;;;59.60;31.95;;;4.50;95.90;;;;;;5031628;28;20034;-86
2020/12/07 05:22:36;;;;;;;65.30;32.92;;;4.50;95.90;;;;;;5031422;28;20061;-87
2020/12/07 05:25:06;;;;;;;59.15;31.27;;;4.50;95.90;;;;;;5029917;28;20049;-88
2020/12/07 05:27:33;;;;;;;61.85;31.33;;;4.60;96.00;;;;;;5018661;28;20103;-87
2020/12/07 05:30:19;;;;;;;67.50;32.30;;;4.60;96.30;;;;;;5029468;28;20028;-87
2020/12/07 05:32:44;;;;;;;58.78;31.60;;;4.60;96.00;;;;;;5016975;28;20030;-88
2020/12/07 05:35:10;;;;;;;66.85;34.05;;;4.60;96.00;;;;;;5028676;28;20052;-88
2020/12/07 05:37:37;;;;;;;64.72;32.90;;;4.60;96.00;;;;;;5030570;28;20382;-87
2020/12/07 05:40:06;;;;;;;56.78;29.08;;;4.60;95.90;;;;;;5031308;28;20126;-87
2020/12/07 05:42:32;;;;;;;56.90;30.23;;;4.60;96.00;;;;;;5031666;28;20087;-86
2020/12/07 05:44:59;;;;;;;60.95;32.28;;;4.60;96.00;;;;;;5032067;28;20041;-87
2020/12/07 05:47:25;;;;;;;58.28;29.27;;;4.60;96.00;;;;;;5031351;28;20124;-87
2020/12/07 05:49:52;;;;;;;62.75;31.77;;;4.60;96.00;;;;;;5029554;28;20026;-87
2020/12/07 05:52:46;;;;;;;59.28;30.27;;;4.60;96.00;;;;;;5029123;28;20034;-86
2020/12/07 05:55:17;;;;;;;59.08;30.77;;;4.60;96.00;;;;;;5029323;28;20096;-87
2020/12/07 05:58:04;;;;;;;59.80;32.38;;;4.60;96.00;;;;;;5024037;28;20033;-89
2020/12/07 06:00:32;;;;;;;55.08;26.83;;;4.70;96.00;;;;;;5017444;28;20033;-88
2020/12/07 06:02:59;;;;;;;56.15;28.65;;;4.60;96.00;;;;;;5025289;28;20025;-88
2020/12/07 06:05:24;;;;;;;47.17;24.77;;;4.70;96.00;;;;;;5029292;28;20025;-88
2020/12/07 06:07:57;;;;;;;51.40;27.55;;;4.70;96.00;;;;;;5032181;28;20030;-88
2020/12/07 06:10:28;;;;;;;52.97;30.30;;;4.70;96.00;;;;;;5025509;28;20385;-88
2020/12/07 06:12:56;;;;;;;54.47;28.55;;;4.70;96.00;;;;;;5033500;28;20064;-88
2020/12/07 06:15:25;;;;;;;55.20;30.20;;;4.70;96.00;;;;;;5032694;28;20025;-88
2020/12/07 06:17:50;;;;;;;48.92;28.17;;;4.80;96.10;;;;;;5030922;28;20032;-88
2020/12/07 06:20:29;;;;;;;52.72;28.50;;;4.80;96.00;;;;;;5030795;28;20030;-88
2020/12/07 06:22:57;;;;;;;55.53;30.42;;;4.80;96.00;;;;;;5029926;28;20079;-88
2020/12/07 06:25:30;;;;;;;52.20;30.08;;;4.80;96.00;;;;;;5039402;28;20029;-89
2020/12/07 06:28:08;;;;;;;52.25;28.15;;;4.80;96.00;;;;;;5030442;28;20438;-90
2020/12/07 06:30:38;;;;;;;53.20;29.55;;;4.90;96.00;;;;;;5040818;28;20044;-89
2020/12/07 06:33:08;;;;;;;58.45;29.25;;;4.80;96.00;;;;;;5017496;28;20520;-88
2020/12/07 06:35:44;;;;;;;57.75;31.50;;;4.90;96.00;;;;;;5031411;28;20041;-89
2020/12/07 06:38:10;;;;;;;54.92;29.77;;;4.90;95.90;;;;;;5035810;28;20486;-89
2020/12/07 06:40:37;;;;;;;53.60;30.55;;;4.90;95.90;;;;;;5036249;28;20021;-88
2020/12/07 06:43:28;;;;;;;73.10;30.73;;;4.80;95.90;;;;;;5035597;28;20037;-89
2020/12/07 06:45:54;;;;;;;53.08;28.67;;;4.80;95.90;;;;;;5033939;28;20410;-89
2020/12/07 06:48:22;;;;;;;52.80;28.15;;;4.80;95.90;;;;;;5032380;28;20047;-89
2020/12/07 06:50:50;;;;;;;49.83;27.23;;;4.90;96.00;;;;;;5030643;28;20022;-89
2020/12/07 06:53:36;;;;;;;51.15;28.55;;;4.90;96.00;;;;;;5016663;28;20041;-89
2020/12/07 06:56:01;;;;;;;49.67;26.70;;;4.80;95.90;;;;;;5031503;28;20482;-89
2020/12/07 06:58:32;;;;;;;50.40;27.45;;;4.80;96.00;;;;;;5031153;28;20038;-89
2020/12/07 07:01:10;;;;;;;47.38;25.38;;;4.80;96.00;;;;;;5032338;28;20029;-88
2020/12/07 07:03:37;;;;;;;43.08;22.27;;;4.80;96.00;;;;;;5027819;28;20087;-88
2020/12/07 07:06:10;;;;;;;53.28;27.48;;;4.80;96.00;;;;;;5035586;28;20029;-89
2020/12/07 07:08:37;;;;;;;41.63;24.45;;;4.80;96.00;;;;;;5035432;28;20028;-89
2020/12/07 07:11:05;;;;;;;44.05;24.75;;;4.80;96.00;;;;;;5038106;28;20029;-88
2020/12/07 07:13:31;;;;;;;45.28;25.95;;;4.80;96.10;;;;;;5043312;28;20100;-89
2020/12/07 07:15:56;;;;;;;45.90;25.20;;;4.80;96.10;;;;;;5036279;28;20025;-89
2020/12/07 07:18:22;;;;;;;47.45;26.80;;;4.80;96.00;;;;;;5033152;28;20124;-89
2020/12/07 07:20:47;;;;;;;43.90;23.75;;;4.80;96.10;;;;;;5035354;28;20021;-89
2020/12/07 07:23:13;;;;;;;42.30;24.55;;;4.80;96.10;;;;;;5029922;28;20030;-88
2020/12/07 07:26:11;;;;;;;45.72;24.38;;;4.80;96.10;;;;;;5031441;28;20045;-89
2020/12/07 07:28:25;;;;;;;48.88;25.20;;;4.80;96.10;;;;;;5030791;28;20037;-88
2020/12/07 07:30:51;;;;;;;44.08;24.17;;;4.80;96.10;;;;;;5017468;28;20030;-88
2020/12/07 07:33:16;;;;;;;49.35;25.50;;;4.80;96.10;;;;;;5037531;28;20436;-88
2020/12/07 07:35:42;;;;;;;47.85;25.20;;;4.80;96.10;;;;;;5035247;28;20025;-88
2020/12/07 07:38:07;;;;;;;43.00;24.88;;;4.80;96.10;;;;;;5035443;28;20022;-88
2020/12/07 07:40:33;;;;;;;47.28;27.10;;;4.90;96.10;;;;;;5034745;28;20030;-88
2020/12/07 07:43:02;;;;;;;49.80;26.63;;;4.80;96.10;;;;;;5033284;28;20057;-88
2020/12/07 07:45:35;;;;;;;50.80;26.80;;;4.80;96.10;;;;;;5030631;28;20120;-88
2020/12/07 07:54:08;;;;;;;43.75;25.42;;;4.90;96.20;;;;;;5031675;28;20513;-88
2020/12/07 08:15:44;;;;;;;42.90;23.10;;;4.90;96.00;;;;;;5036700;28;20496;-87
2020/12/07 08:18:10;;;;;;;39.30;22.10;;;4.90;96.00;;;;;;5014610;28;20022;-89
2020/12/07 08:20:47;;;;;;;40.85;24.13;;;4.90;96.10;;;;;;5034663;28;20032;-89
2020/12/07 08:23:13;;;;;;;49.38;25.20;;;5.00;96.10;;;;;;5034062;28;20444;-89
2020/12/07 08:25:49;;;;;;;41.70;24.25;;;5.00;96.10;;;;;;5025481;28;20022;-89
2020/12/07 08:28:25;;;;;;;40.25;22.58;;;5.00;96.00;;;;;;5030013;28;20141;-90
2020/12/07 08:30:57;;;;;;;39.70;23.13;;;5.00;96.00;;;;;;5026872;28;20026;-89
2020/12/07 08:33:23;;;;;;;41.35;22.70;;;5.10;96.00;;;;;;5032904;28;20033;-89
2020/12/07 08:35:49;;;;;;;39.15;23.98;;;5.10;96.00;;;;;;5031385;28;20048;-89
2020/12/07 08:38:38;;;;;;;43.95;25.80;;;5.10;96.00;;;;;;5032979;28;20028;-89
2020/12/07 08:41:06;;;;;;;47.03;26.55;;;5.10;95.90;;;;;;5024496;28;20604;-90
2020/12/07 08:43:32;;;;;;;47.35;28.08;;;5.10;95.90;;;;;;5033844;28;20563;-90
2020/12/07 08:45:57;;;;;;;52.72;27.60;;;5.10;95.90;;;;;;5027332;28;20026;-88
2020/12/07 08:48:23;;;;;;;52.75;29.45;;;5.00;95.80;;;;;;5025993;28;20409;-89
2020/12/07 08:50:48;;;;;;;51.47;29.45;;;5.00;95.80;;;;;;5033999;28;20034;-88
2020/12/07 08:53:14;;;;;;;54.05;29.95;;;5.00;95.80;;;;;;5031968;28;20079;-89
2020/12/07 08:55:40;;;;;;;51.35;29.63;;;4.90;95.70;;;;;;5033251;28;20415;-90
2020/12/07 08:58:05;;;;;;;52.38;29.30;;;5.00;95.80;;;;;;5030047;28;20117;-90
2020/12/07 09:00:31;;;;;;;52.42;29.05;;;5.00;95.80;;;;;;5048963;28;20116;-90
2020/12/07 09:02:56;;;;;;;52.72;30.10;;;4.90;95.80;;;;;;5032459;28;20029;-90
2020/12/07 09:05:22;;;;;;;56.42;31.23;;;4.90;95.70;;;;;;5008092;28;20021;-87
2020/12/07 09:07:47;;;;;;;50.25;28.73;;;4.90;95.70;;;;;;5028928;28;20044;-88
2020/12/07 09:10:13;;;;;;;61.50;34.38;;;4.90;95.70;;;;;;5028972;28;20032;-88
2020/12/07 09:12:38;;;;;;;54.20;30.90;;;4.90;95.70;;;;;;5033894;28;20082;-88
2020/12/07 09:15:04;;;;;;;56.83;30.95;;;4.90;95.60;;;;;;5032263;28;20128;-88
2020/12/07 09:17:30;;;;;;;56.88;32.85;;;4.80;95.60;;;;;;5030940;28;20022;-89
2020/12/07 09:19:55;;;;;;;55.20;32.65;;;4.90;95.60;;;;;;5032978;28;20035;-89
2020/12/07 09:22:21;;;;;;;55.88;32.90;;;4.90;95.70;;;;;;5044859;28;20021;-88
2020/12/07 09:24:46;;;;;;;56.45;33.75;;;4.80;95.60;;;;;;5033002;28;20060;-89
2020/12/07 09:27:12;;;;;;;59.60;33.67;;;4.80;95.60;;;;;;5025148;28;20435;-89
2020/12/07 09:29:37;;;;;;;60.63;32.38;;;4.90;95.70;;;;;;5028478;28;20026;-89
2020/12/07 09:32:03;;;;;;;66.82;38.00;;;4.80;95.60;;;;;;5033038;28;20023;-89
2020/12/07 09:34:29;;;;;;;61.83;34.92;;;4.80;95.60;;;;;;5028680;28;20053;-88
2020/12/07 09:36:54;;;;;;;74.00;42.28;;;4.90;95.70;;;;;;5029179;28;20030;-88
2020/12/07 09:39:20;;;;;;;74.47;39.35;;;4.90;95.60;;;;;;5023763;28;20038;-89
2020/12/07 09:41:45;;;;;;;79.00;42.88;;;4.90;95.60;;;;;;5019901;28;20492;-88
2020/12/07 09:44:11;;;;;;;69.82;39.15;;;4.90;95.60;;;;;;5035935;28;20497;-88
2020/12/07 09:46:36;;;;;;;75.60;40.47;;;4.90;95.60;;;;;;5033792;28;20026;-89
2020/12/07 09:49:02;;;;;;;71.85;38.28;;;5.00;95.60;;;;;;5032602;28;20037;-88
2020/12/07 09:51:27;;;;;;;81.70;41.78;;;5.00;95.60;;;;;;5032507;28;20017;-89
2020/12/07 09:53:53;;;;;;;79.65;41.83;;;5.10;95.60;;;;;;5031737;28;20045;-89
2020/12/07 09:56:18;;;;;;;75.93;41.10;;;5.10;95.50;;;;;;5033214;28;20025;-89
2020/12/07 09:58:44;;;;;;;81.93;39.85;;;5.10;95.40;;;;;;5033223;28;20041;-89
2020/12/07 10:01:09;;;;;;;77.10;43.08;;;5.10;95.40;;;;;;5035111;28;20017;-89
2020/12/07 10:03:35;;;;;;;86.00;43.78;;;5.00;95.40;;;;;;5031359;28;20033;-89
2020/12/07 10:06:00;;;;;;;76.40;42.80;;;5.00;95.30;;;;;;5033089;28;20029;-90
2020/12/07 10:08:26;;;;;;;79.90;42.88;;;5.00;95.20;;;;;;5032861;28;20399;-90
2020/12/07 10:10:51;;;;;;;83.40;42.60;;;4.90;95.20;;;;;;5034522;28;20021;-88
2020/12/07 10:13:17;;;;;;;87.72;45.83;;;4.90;95.30;;;;;;5036173;28;20052;-90
2020/12/07 10:15:42;;;;;;;86.28;43.90;;;4.90;95.30;;;;;;5036343;28;20385;-90
2020/12/07 10:18:08;;;;;;;84.78;43.08;;;4.90;95.30;;;;;;5036544;28;20036;-90
2020/12/07 10:20:33;;;;;;;84.65;43.20;;;4.80;95.20;;;;;;5036635;28;20064;-90
2020/12/07 10:22:59;;;;;;;87.38;43.80;;;4.80;95.30;;;;;;5034595;28;20080;-90
2020/12/07 10:25:24;;;;;;;94.30;47.47;;;4.80;95.30;;;;;;5036158;28;20071;-90
2020/12/07 10:27:50;;;;;;;88.13;45.25;;;4.80;95.20;;;;;;5033865;28;20040;-88
2020/12/07 10:30:16;;;;;;;94.28;45.70;;;4.80;95.20;;;;;;5019886;28;20021;-87
2020/12/07 10:32:41;;;;;;;90.32;45.28;;;4.80;95.20;;;;;;5035871;28;20067;-89
2020/12/07 10:35:07;;;;;;;98.88;48.67;;;4.80;95.10;;;;;;5036456;28;20444;-91
2020/12/07 10:37:32;;;;;;;96.63;46.83;;;4.80;95.10;;;;;;5018410;28;20105;-90
2020/12/07 10:39:57;;;;;;;93.30;44.15;;;4.70;95.10;;;;;;5035358;28;20061;-91
2020/12/07 10:42:23;;;;;;;93.90;44.17;;;4.80;95.20;;;;;;5035596;28;20014;-90
2020/12/07 10:44:49;;;;;;;93.10;46.95;;;4.70;95.10;;;;;;5036130;28;20502;-90
2020/12/07 10:47:14;;;;;;;92.47;46.25;;;4.70;95.00;;;;;;5034400;28;20030;-90
2020/12/07 10:49:40;;;;;;;96.38;46.60;;;4.70;95.00;;;;;;5035916;28;20021;-90
2020/12/07 10:52:05;;;;;;;92.25;43.53;;;4.70;95.10;;;;;;5034655;28;20025;-91
2020/12/07 10:54:31;;;;;;;99.80;46.00;;;4.80;95.20;;;;;;5035793;28;20037;-90
2020/12/07 10:56:56;;;;;;;92.20;42.63;;;4.80;95.10;;;;;;5037480;28;20022;-91
2020/12/07 10:59:22;;;;;;;93.72;44.33;;;4.80;95.10;;;;;;5042937;28;20037;-91
2020/12/07 11:01:51;;;;;;;104.45;46.00;;;4.80;95.00;;;;;;5026510;28;20478;-90
2020/12/07 11:04:17;;;;;;;91.28;44.95;;;4.90;95.00;;;;;;5035717;28;20029;-90
2020/12/07 11:06:44;;;;;;;96.70;41.70;;;4.90;95.00;;;;;;5031711;28;20057;-91
2020/12/07 11:09:11;;;;;;;80.80;42.13;;;4.90;95.00;;;;;;5019801;28;20053;-88
2020/12/07 11:11:37;;;;;;;88.93;43.30;;;4.90;94.90;;;;;;5026218;28;20087;-89
2020/12/07 11:14:03;;;;;;;83.43;40.70;;;4.90;94.80;;;;;;5031745;28;20101;-90
2020/12/07 11:16:29;;;;;;;83.22;40.05;;;4.90;94.90;;;;;;5026993;28;20029;-91
2020/12/07 11:18:55;;;;;;;84.97;39.67;;;4.90;95.20;;;;;;5035569;28;20033;-91
2020/12/07 11:21:20;;;;;;;79.80;38.08;;;4.90;95.00;;;;;;5034539;28;20029;-91
2020/12/07 11:23:48;;;;;;;78.60;38.55;;;5.00;95.00;;;;;;5030756;28;20029;-91
2020/12/07 11:26:16;;;;;;;80.97;36.67;;;5.00;94.90;;;;;;5027950;28;20391;-91
2020/12/07 11:28:42;;;;;;;75.68;37.63;;;5.10;94.90;;;;;;5015475;28;20037;-91
2020/12/07 11:31:12;;;;;;;77.70;37.47;;;5.00;94.90;;;;;;5023129;28;20395;-91
2020/12/07 11:33:38;;;;;;;76.80;35.75;;;5.00;94.80;;;;;;5034332;28;20030;-90
2020/12/07 11:36:03;;;;;;;72.68;35.88;;;5.10;94.90;;;;;;5017889;28;20500;-91
2020/12/07 11:38:43;;;;;;;71.63;35.72;;;5.10;94.80;;;;;;5042810;28;20091;-91
2020/12/07 11:41:21;;;;;;;71.95;35.58;;;5.10;94.80;;;;;;5045543;28;20029;-91
2020/12/07 11:46:31;;;;;;;73.07;35.67;;;5.10;94.70;;;;;;5031617;28;20098;-91
2020/12/07 11:48:57;;;;;;;70.22;33.60;;;5.10;94.70;;;;;;5034515;28;20029;-90
2020/12/07 11:51:24;;;;;;;66.68;31.73;;;5.10;94.70;;;;;;5034832;28;20033;-90
2020/12/07 11:53:52;;;;;;;60.05;30.83;;;5.10;94.60;;;;;;5033971;28;20444;-89
2020/12/07 11:56:25;;;;;;;62.78;31.13;;;5.10;94.60;;;;;;5033872;28;20044;-91
2020/12/07 11:58:50;;;;;;;63.00;31.17;;;5.10;94.60;;;;;;5034963;28;20032;-90
2020/12/07 12:01:16;;;;;;;58.78;30.55;;;5.10;94.60;;;;;;5034972;28;20029;-91
2020/12/07 12:03:45;;;;;;;60.42;29.92;;;5.10;94.50;;;;;;5034613;28;20509;-88
2020/12/07 12:06:10;;;;;;;57.55;29.67;;;5.10;94.50;;;;;;5033387;28;20037;-91
2020/12/07 12:08:36;;;;;;;55.30;28.38;;;5.00;94.40;;;;;;5034480;28;20021;-91
2020/12/07 12:11:01;;;;;;;62.22;28.95;;;5.00;94.40;;;;;;5034580;28;20544;-91
2020/12/07 12:13:26;;;;;;;61.72;28.85;;;5.00;94.40;;;;;;5033981;28;20128;-90
2020/12/07 12:15:52;;;;;;;62.55;29.20;;;4.90;94.30;;;;;;5035966;28;20497;-91
2020/12/07 12:18:17;;;;;;;63.03;30.63;;;4.90;94.40;;;;;;5031289;28;20034;-90
2020/12/07 12:20:48;;;;;;;63.60;31.08;;;4.90;94.40;;;;;;5026551;28;20051;-90
2020/12/07 12:23:14;;;;;;;66.50;30.52;;;4.90;94.40;;;;;;5020867;28;20045;-90
2020/12/07 12:25:40;;;;;;;58.63;29.75;;;4.90;94.40;;;;;;5031739;28;20125;-91
2020/12/07 12:28:07;;;;;;;60.50;29.38;;;4.80;94.40;;;;;;5033341;28;20151;-91
2020/12/07 12:30:32;;;;;;;58.20;28.40;;;4.80;94.40;;;;;;5033777;28;20029;-91
2020/12/07 12:32:58;;;;;;;57.95;28.27;;;4.90;94.50;;;;;;5032926;28;20474;-90
2020/12/07 12:35:25;;;;;;;58.95;27.98;;;4.90;94.40;;;;;;5033281;28;20037;-91
2020/12/07 12:37:51;;;;;;;58.08;28.25;;;4.80;94.40;;;;;;5034104;28;20022;-91
2020/12/07 12:40:16;;;;;;;52.60;27.95;;;4.80;94.40;;;;;;5033025;28;20034;-91
2020/12/07 12:42:42;;;;;;;60.47;28.80;;;4.90;94.40;;;;;;5041902;28;20470;-91
2020/12/07 12:45:08;;;;;;;61.45;28.95;;;4.80;94.70;;;;;;5030771;28;20052;-91
2020/12/07 12:47:33;;;;;;;61.25;29.60;;;4.80;94.40;;;;;;5026818;28;20493;-91
2020/12/07 12:49:59;;;;;;;60.92;29.38;;;4.80;94.40;;;;;;5036639;28;20045;-90
2020/12/07 12:52:24;;;;;;;58.00;29.20;;;4.80;94.40;;;;;;5034141;28;20029;-90
2020/12/07 12:54:49;;;;;;;55.30;26.58;;;4.80;94.50;;;;;;5048255;28;20201;-90
2020/12/07 12:57:15;;;;;;;61.25;30.23;;;4.80;94.50;;;;;;5028417;28;20030;-90
2020/12/07 12:59:40;;;;;;;63.90;30.05;;;4.80;94.40;;;;;;5013683;28;20116;-90
2020/12/07 13:02:06;;;;;;;61.95;29.88;;;4.70;94.40;;;;;;5014565;28;20025;-90